sensor_id;sensor_type;location;lat;lon;timestamp;P1;durP1;ratioP1;P2;durP2;ratioP2
8252;SDS011;61313;48.396;10.008;2023-03-23T00:02:26;10.07;;;5.87;;
8252;SDS011;61313;48.396;10.008;2023-03-23T00:04:53;7.50;;;6.10;;
8252;SDS011;61313;48.396;10.008;2023-03-23T00:07:22;10.10;;;6.63;;
8252;SDS011;61313;48.396;10.008;2023-03-23T00:09:52;15.40;;;6.63;;
8252;SDS011;61313;48.396;10.008;2023-03-23T00:12:22;11.03;;;6.97;;
8252;SDS011;61313;48.396;10.008;2023-03-23T00:14:59;7.23;;;5.80;;
8252;SDS011;61313;48.396;10.008;2023-03-23T00:17:28;7.17;;;5.93;;
8252;SDS011;61313;48.396;10.008;2023-03-23T00:19:55;7.17;;;6.47;;
8252;SDS011;61313;48.396;10.008;2023-03-23T00:22:20;9.53;;;6.60;;
8252;SDS011;61313;48.396;10.008;2023-03-23T00:24:46;8.93;;;7.17;;
8252;SDS011;61313;48.396;10.008;2023-03-23T00:27:15;7.10;;;6.40;;
8252;SDS011;61313;48.396;10.008;2023-03-23T00:29:41;11.13;;;6.53;;
8252;SDS011;61313;48.396;10.008;2023-03-23T00:32:07;7.13;;;6.43;;
8252;SDS011;61313;48.396;10.008;2023-03-23T00:34:39;10.73;;;7.40;;
8252;SDS011;61313;48.396;10.008;2023-03-23T00:37:08;8.30;;;6.50;;
8252;SDS011;61313;48.396;10.008;2023-03-23T00:39:34;11.90;;;6.53;;
8252;SDS011;61313;48.396;10.008;2023-03-23T00:42:02;7.10;;;6.40;;
8252;SDS011;61313;48.396;10.008;2023-03-23T00:44:28;9.30;;;6.20;;
8252;SDS011;61313;48.396;10.008;2023-03-23T00:46:55;8.73;;;7.93;;
8252;SDS011;61313;48.396;10.008;2023-03-23T00:49:21;10.50;;;7.50;;
8252;SDS011;61313;48.396;10.008;2023-03-23T00:51:54;9.97;;;6.30;;
8252;SDS011;61313;48.396;10.008;2023-03-23T00:54:22;12.40;;;6.60;;
8252;SDS011;61313;48.396;10.008;2023-03-23T00:56:49;11.83;;;6.37;;
8252;SDS011;61313;48.396;10.008;2023-03-23T00:59:15;13.27;;;7.00;;
8252;SDS011;61313;48.396;10.008;2023-03-23T01:01:41;8.00;;;6.80;;
8252;SDS011;61313;48.396;10.008;2023-03-23T01:04:07;8.73;;;6.13;;
8252;SDS011;61313;48.396;10.008;2023-03-23T01:06:34;8.70;;;6.27;;
8252;SDS011;61313;48.396;10.008;2023-03-23T01:09:04;16.80;;;7.63;;
8252;SDS011;61313;48.396;10.008;2023-03-23T01:11:31;6.70;;;6.00;;
8252;SDS011;61313;48.396;10.008;2023-03-23T01:13:56;11.00;;;6.90;;
8252;SDS011;61313;48.396;10.008;2023-03-23T01:16:22;10.30;;;6.40;;
8252;SDS011;61313;48.396;10.008;2023-03-23T01:18:48;8.40;;;6.00;;
8252;SDS011;61313;48.396;10.008;2023-03-23T01:21:18;7.90;;;6.90;;
8252;SDS011;61313;48.396;10.008;2023-03-23T01:23:45;12.00;;;6.33;;
8252;SDS011;61313;48.396;10.008;2023-03-23T01:26:15;9.13;;;6.50;;
8252;SDS011;61313;48.396;10.008;2023-03-23T01:28:44;9.03;;;6.93;;
8252;SDS011;61313;48.396;10.008;2023-03-23T01:31:11;9.93;;;6.67;;
8252;SDS011;61313;48.396;10.008;2023-03-23T01:33:39;7.70;;;6.00;;
8252;SDS011;61313;48.396;10.008;2023-03-23T01:36:06;6.80;;;5.90;;
8252;SDS011;61313;48.396;10.008;2023-03-23T01:38:34;9.20;;;7.07;;
8252;SDS011;61313;48.396;10.008;2023-03-23T01:41:00;8.07;;;6.00;;
8252;SDS011;61313;48.396;10.008;2023-03-23T01:43:26;13.13;;;6.47;;
8252;SDS011;61313;48.396;10.008;2023-03-23T01:45:52;6.53;;;5.83;;
8252;SDS011;61313;48.396;10.008;2023-03-23T01:48:28;12.10;;;5.90;;
8252;SDS011;61313;48.396;10.008;2023-03-23T01:50:58;9.23;;;5.50;;
8252;SDS011;61313;48.396;10.008;2023-03-23T01:53:32;12.83;;;6.80;;
8252;SDS011;61313;48.396;10.008;2023-03-23T01:56:14;11.13;;;5.70;;
8252;SDS011;61313;48.396;10.008;2023-03-23T01:58:44;8.80;;;5.70;;
8252;SDS011;61313;48.396;10.008;2023-03-23T02:01:11;7.10;;;5.33;;
8252;SDS011;61313;48.396;10.008;2023-03-23T02:03:41;7.33;;;5.90;;
8252;SDS011;61313;48.396;10.008;2023-03-23T02:06:10;8.33;;;6.47;;
8252;SDS011;61313;48.396;10.008;2023-03-23T02:08:35;5.93;;;5.03;;
8252;SDS011;61313;48.396;10.008;2023-03-23T02:11:13;8.00;;;6.07;;
8252;SDS011;61313;48.396;10.008;2023-03-23T02:13:40;6.40;;;5.60;;
8252;SDS011;61313;48.396;10.008;2023-03-23T02:16:08;6.87;;;5.97;;
8252;SDS011;61313;48.396;10.008;2023-03-23T02:22:08;10.70;;;5.80;;
8252;SDS011;61313;48.396;10.008;2023-03-23T02:24:59;7.70;;;5.23;;
8252;SDS011;61313;48.396;10.008;2023-03-23T02:36:02;10.07;;;6.10;;
8252;SDS011;61313;48.396;10.008;2023-03-23T02:38:42;6.43;;;5.60;;
8252;SDS011;61313;48.396;10.008;2023-03-23T02:41:09;8.03;;;5.60;;
8252;SDS011;61313;48.396;10.008;2023-03-23T02:43:38;7.53;;;6.63;;
8252;SDS011;61313;48.396;10.008;2023-03-23T02:46:08;7.00;;;6.30;;
8252;SDS011;61313;48.396;10.008;2023-03-23T02:48:36;8.60;;;6.07;;
8252;SDS011;61313;48.396;10.008;2023-03-23T02:51:05;9.40;;;6.27;;
8252;SDS011;61313;48.396;10.008;2023-03-23T02:53:33;13.73;;;6.67;;
8252;SDS011;61313;48.396;10.008;2023-03-23T02:56:01;17.87;;;8.17;;
8252;SDS011;61313;48.396;10.008;2023-03-23T02:58:30;11.83;;;6.77;;
8252;SDS011;61313;48.396;10.008;2023-03-23T03:00:55;12.03;;;7.47;;
8252;SDS011;61313;48.396;10.008;2023-03-23T03:03:22;6.87;;;6.17;;
8252;SDS011;61313;48.396;10.008;2023-03-23T03:08:42;9.93;;;5.73;;
8252;SDS011;61313;48.396;10.008;2023-03-23T03:11:11;7.83;;;6.20;;
8252;SDS011;61313;48.396;10.008;2023-03-23T03:18:52;15.30;;;7.50;;
8252;SDS011;61313;48.396;10.008;2023-03-23T03:21:27;7.80;;;6.73;;
8252;SDS011;61313;48.396;10.008;2023-03-23T03:23:58;7.63;;;6.90;;
8252;SDS011;61313;48.396;10.008;2023-03-23T03:26:27;10.93;;;7.40;;
8252;SDS011;61313;48.396;10.008;2023-03-23T03:28:56;8.10;;;6.80;;
8252;SDS011;61313;48.396;10.008;2023-03-23T03:31:23;10.43;;;7.37;;
8252;SDS011;61313;48.396;10.008;2023-03-23T03:33:53;15.17;;;7.60;;
8252;SDS011;61313;48.396;10.008;2023-03-23T03:36:20;8.07;;;7.27;;
8252;SDS011;61313;48.396;10.008;2023-03-23T03:38:49;9.13;;;7.20;;
8252;SDS011;61313;48.396;10.008;2023-03-23T03:41:15;11.87;;;7.83;;
8252;SDS011;61313;48.396;10.008;2023-03-23T03:43:41;8.80;;;7.67;;
8252;SDS011;61313;48.396;10.008;2023-03-23T03:46:07;8.20;;;6.97;;
8252;SDS011;61313;48.396;10.008;2023-03-23T03:48:32;7.70;;;6.90;;
8252;SDS011;61313;48.396;10.008;2023-03-23T03:50:58;7.50;;;6.80;;
8252;SDS011;61313;48.396;10.008;2023-03-23T03:53:25;7.73;;;7.00;;
8252;SDS011;61313;48.396;10.008;2023-03-23T03:55:52;7.37;;;6.63;;
8252;SDS011;61313;48.396;10.008;2023-03-23T03:58:21;13.97;;;8.20;;
8252;SDS011;61313;48.396;10.008;2023-03-23T04:00:47;9.17;;;6.20;;
8252;SDS011;61313;48.396;10.008;2023-03-23T04:03:13;13.40;;;7.13;;
8252;SDS011;61313;48.396;10.008;2023-03-23T04:05:40;11.80;;;7.93;;
8252;SDS011;61313;48.396;10.008;2023-03-23T04:08:06;8.07;;;6.60;;
8252;SDS011;61313;48.396;10.008;2023-03-23T04:10:32;12.50;;;6.77;;
8252;SDS011;61313;48.396;10.008;2023-03-23T04:12:58;9.60;;;7.70;;
8252;SDS011;61313;48.396;10.008;2023-03-23T04:15:24;9.83;;;7.40;;
8252;SDS011;61313;48.396;10.008;2023-03-23T04:17:51;8.10;;;6.80;;
8252;SDS011;61313;48.396;10.008;2023-03-23T04:20:16;9.83;;;7.37;;
8252;SDS011;61313;48.396;10.008;2023-03-23T04:22:46;7.87;;;7.17;;
8252;SDS011;61313;48.396;10.008;2023-03-23T04:25:14;8.67;;;7.73;;
8252;SDS011;61313;48.396;10.008;2023-03-23T04:27:42;8.30;;;7.37;;
8252;SDS011;61313;48.396;10.008;2023-03-23T04:30:09;7.87;;;6.70;;
8252;SDS011;61313;48.396;10.008;2023-03-23T04:32:37;8.27;;;7.40;;
8252;SDS011;61313;48.396;10.008;2023-03-23T04:35:05;12.43;;;7.13;;
8252;SDS011;61313;48.396;10.008;2023-03-23T04:37:31;11.57;;;7.43;;
8252;SDS011;61313;48.396;10.008;2023-03-23T04:39:57;14.77;;;7.87;;
8252;SDS011;61313;48.396;10.008;2023-03-23T04:42:29;15.67;;;7.80;;
8252;SDS011;61313;48.396;10.008;2023-03-23T04:44:58;14.60;;;9.20;;
8252;SDS011;61313;48.396;10.008;2023-03-23T04:47:25;13.17;;;7.13;;
8252;SDS011;61313;48.396;10.008;2023-03-23T04:49:57;18.07;;;7.80;;
8252;SDS011;61313;48.396;10.008;2023-03-23T04:52:26;11.70;;;8.37;;
8252;SDS011;61313;48.396;10.008;2023-03-23T04:54:53;15.23;;;8.97;;
8252;SDS011;61313;48.396;10.008;2023-03-23T04:57:22;14.43;;;8.50;;
8252;SDS011;61313;48.396;10.008;2023-03-23T04:59:48;12.63;;;7.90;;
8252;SDS011;61313;48.396;10.008;2023-03-23T05:02:13;20.43;;;8.83;;
8252;SDS011;61313;48.396;10.008;2023-03-23T05:04:39;9.60;;;7.27;;
8252;SDS011;61313;48.396;10.008;2023-03-23T05:07:06;13.93;;;7.20;;
8252;SDS011;61313;48.396;10.008;2023-03-23T05:09:33;35.27;;;10.20;;
8252;SDS011;61313;48.396;10.008;2023-03-23T05:12:03;12.87;;;8.67;;
8252;SDS011;61313;48.396;10.008;2023-03-23T05:14:30;20.53;;;7.67;;
8252;SDS011;61313;48.396;10.008;2023-03-23T05:16:55;19.70;;;7.90;;
8252;SDS011;61313;48.396;10.008;2023-03-23T05:19:21;18.53;;;7.97;;
8252;SDS011;61313;48.396;10.008;2023-03-23T05:21:46;30.03;;;9.93;;
8252;SDS011;61313;48.396;10.008;2023-03-23T05:24:12;9.03;;;6.80;;
8252;SDS011;61313;48.396;10.008;2023-03-23T05:26:37;10.83;;;6.63;;
8252;SDS011;61313;48.396;10.008;2023-03-23T05:29:02;11.90;;;7.93;;
8252;SDS011;61313;48.396;10.008;2023-03-23T05:31:28;11.53;;;6.90;;
8252;SDS011;61313;48.396;10.008;2023-03-23T05:33:53;13.43;;;7.23;;
8252;SDS011;61313;48.396;10.008;2023-03-23T05:36:19;7.60;;;6.80;;
8252;SDS011;61313;48.396;10.008;2023-03-23T05:38:44;6.63;;;6.03;;
8252;SDS011;61313;48.396;10.008;2023-03-23T05:41:12;9.50;;;6.57;;
8252;SDS011;61313;48.396;10.008;2023-03-23T05:43:38;12.50;;;6.90;;
8252;SDS011;61313;48.396;10.008;2023-03-23T05:46:04;9.00;;;6.83;;
8252;SDS011;61313;48.396;10.008;2023-03-23T05:48:30;16.73;;;7.87;;
8252;SDS011;61313;48.396;10.008;2023-03-23T05:50:55;10.73;;;6.20;;
8252;SDS011;61313;48.396;10.008;2023-03-23T05:53:21;6.73;;;6.00;;
8252;SDS011;61313;48.396;10.008;2023-03-23T05:55:48;10.10;;;7.37;;
8252;SDS011;61313;48.396;10.008;2023-03-23T05:58:13;19.70;;;7.77;;
8252;SDS011;61313;48.396;10.008;2023-03-23T06:00:39;9.23;;;5.80;;
8252;SDS011;61313;48.396;10.008;2023-03-23T06:03:04;8.20;;;5.50;;
8252;SDS011;61313;48.396;10.008;2023-03-23T06:05:30;11.23;;;7.03;;
8252;SDS011;61313;48.396;10.008;2023-03-23T06:07:56;11.70;;;6.87;;
8252;SDS011;61313;48.396;10.008;2023-03-23T06:10:21;19.40;;;6.87;;
8252;SDS011;61313;48.396;10.008;2023-03-23T06:12:49;21.30;;;7.87;;
8252;SDS011;61313;48.396;10.008;2023-03-23T06:15:16;28.75;;;8.48;;
8252;SDS011;61313;48.396;10.008;2023-03-23T06:17:42;36.63;;;9.93;;
8252;SDS011;61313;48.396;10.008;2023-03-23T06:20:09;26.33;;;8.30;;
8252;SDS011;61313;48.396;10.008;2023-03-23T06:22:36;33.13;;;8.30;;
8252;SDS011;61313;48.396;10.008;2023-03-23T06:25:05;9.50;;;7.13;;
8252;SDS011;61313;48.396;10.008;2023-03-23T06:27:32;16.60;;;7.97;;
8252;SDS011;61313;48.396;10.008;2023-03-23T06:29:57;19.47;;;7.80;;
8252;SDS011;61313;48.396;10.008;2023-03-23T06:32:23;8.43;;;6.97;;
8252;SDS011;61313;48.396;10.008;2023-03-23T06:34:50;14.33;;;8.30;;
8252;SDS011;61313;48.396;10.008;2023-03-23T06:37:15;9.70;;;6.80;;
8252;SDS011;61313;48.396;10.008;2023-03-23T06:39:41;7.97;;;6.90;;
8252;SDS011;61313;48.396;10.008;2023-03-23T06:42:10;7.90;;;7.10;;
8252;SDS011;61313;48.396;10.008;2023-03-23T06:44:37;13.07;;;9.13;;
8252;SDS011;61313;48.396;10.008;2023-03-23T06:47:02;22.40;;;7.40;;
8252;SDS011;61313;48.396;10.008;2023-03-23T06:49:28;35.60;;;8.40;;
8252;SDS011;61313;48.396;10.008;2023-03-23T06:51:54;18.10;;;9.03;;
8252;SDS011;61313;48.396;10.008;2023-03-23T06:54:21;51.00;;;10.23;;
8252;SDS011;61313;48.396;10.008;2023-03-23T06:56:46;25.50;;;8.07;;
8252;SDS011;61313;48.396;10.008;2023-03-23T06:59:12;78.17;;;15.10;;
8252;SDS011;61313;48.396;10.008;2023-03-23T07:01:38;12.70;;;6.70;;
8252;SDS011;61313;48.396;10.008;2023-03-23T07:04:04;11.73;;;6.87;;
8252;SDS011;61313;48.396;10.008;2023-03-23T07:06:31;14.53;;;7.10;;
8252;SDS011;61313;48.396;10.008;2023-03-23T07:08:56;18.40;;;7.97;;
8252;SDS011;61313;48.396;10.008;2023-03-23T07:11:22;19.30;;;7.80;;
8252;SDS011;61313;48.396;10.008;2023-03-23T07:13:47;13.23;;;8.40;;
8252;SDS011;61313;48.396;10.008;2023-03-23T07:16:14;6.13;;;5.40;;
8252;SDS011;61313;48.396;10.008;2023-03-23T07:18:41;8.17;;;7.20;;
8252;SDS011;61313;48.396;10.008;2023-03-23T07:21:06;10.30;;;6.50;;
8252;SDS011;61313;48.396;10.008;2023-03-23T07:23:32;6.73;;;6.03;;
8252;SDS011;61313;48.396;10.008;2023-03-23T07:25:57;6.70;;;5.80;;
8252;SDS011;61313;48.396;10.008;2023-03-23T07:28:23;10.50;;;6.10;;
8252;SDS011;61313;48.396;10.008;2023-03-23T07:30:48;10.63;;;6.17;;
8252;SDS011;61313;48.396;10.008;2023-03-23T07:33:14;10.53;;;6.43;;
8252;SDS011;61313;48.396;10.008;2023-03-23T07:35:40;10.63;;;6.13;;
8252;SDS011;61313;48.396;10.008;2023-03-23T07:38:05;8.20;;;5.80;;
8252;SDS011;61313;48.396;10.008;2023-03-23T07:40:31;6.40;;;5.80;;
8252;SDS011;61313;48.396;10.008;2023-03-23T07:43:00;7.20;;;5.90;;
8252;SDS011;61313;48.396;10.008;2023-03-23T07:45:27;8.23;;;7.40;;
8252;SDS011;61313;48.396;10.008;2023-03-23T07:47:53;7.23;;;5.77;;
8252;SDS011;61313;48.396;10.008;2023-03-23T07:50:19;16.60;;;7.57;;
8252;SDS011;61313;48.396;10.008;2023-03-23T07:52:49;9.80;;;5.43;;
8252;SDS011;61313;48.396;10.008;2023-03-23T07:55:16;8.47;;;6.40;;
8252;SDS011;61313;48.396;10.008;2023-03-23T07:57:44;10.03;;;7.00;;
8252;SDS011;61313;48.396;10.008;2023-03-23T08:00:12;7.33;;;5.80;;
8252;SDS011;61313;48.396;10.008;2023-03-23T08:02:43;6.27;;;5.67;;
8252;SDS011;61313;48.396;10.008;2023-03-23T08:05:14;8.07;;;5.97;;
8252;SDS011;61313;48.396;10.008;2023-03-23T08:07:40;6.27;;;5.10;;
8252;SDS011;61313;48.396;10.008;2023-03-23T08:10:07;7.63;;;5.67;;
8252;SDS011;61313;48.396;10.008;2023-03-23T08:12:39;8.10;;;4.50;;
8252;SDS011;61313;48.396;10.008;2023-03-23T08:15:07;7.80;;;5.10;;
8252;SDS011;61313;48.396;10.008;2023-03-23T08:17:33;7.43;;;5.00;;
8252;SDS011;61313;48.396;10.008;2023-03-23T08:20:00;10.13;;;5.10;;
8252;SDS011;61313;48.396;10.008;2023-03-23T08:22:26;5.60;;;4.50;;
8252;SDS011;61313;48.396;10.008;2023-03-23T08:24:51;8.93;;;5.73;;
8252;SDS011;61313;48.396;10.008;2023-03-23T08:27:17;11.73;;;5.03;;
8252;SDS011;61313;48.396;10.008;2023-03-23T08:29:46;4.87;;;4.37;;
8252;SDS011;61313;48.396;10.008;2023-03-23T08:32:11;9.77;;;4.93;;
8252;SDS011;61313;48.396;10.008;2023-03-23T08:34:37;9.50;;;5.00;;
8252;SDS011;61313;48.396;10.008;2023-03-23T08:37:03;9.60;;;5.20;;
8252;SDS011;61313;48.396;10.008;2023-03-23T08:39:29;6.80;;;5.53;;
8252;SDS011;61313;48.396;10.008;2023-03-23T08:41:55;10.53;;;5.07;;
8252;SDS011;61313;48.396;10.008;2023-03-23T08:44:21;13.30;;;5.67;;
8252;SDS011;61313;48.396;10.008;2023-03-23T08:46:46;6.63;;;4.90;;
8252;SDS011;61313;48.396;10.008;2023-03-23T08:49:12;13.20;;;5.20;;
8252;SDS011;61313;48.396;10.008;2023-03-23T08:51:38;9.20;;;5.30;;
8252;SDS011;61313;48.396;10.008;2023-03-23T08:54:05;6.93;;;4.40;;
8252;SDS011;61313;48.396;10.008;2023-03-23T08:56:31;6.90;;;5.17;;
8252;SDS011;61313;48.396;10.008;2023-03-23T08:58:56;7.87;;;5.37;;
8252;SDS011;61313;48.396;10.008;2023-03-23T09:01:22;6.37;;;5.40;;
8252;SDS011;61313;48.396;10.008;2023-03-23T09:03:48;11.57;;;5.70;;
8252;SDS011;61313;48.396;10.008;2023-03-23T09:06:13;9.57;;;5.50;;
8252;SDS011;61313;48.396;10.008;2023-03-23T09:08:39;24.97;;;6.27;;
8252;SDS011;61313;48.396;10.008;2023-03-23T09:11:08;15.07;;;6.03;;
8252;SDS011;61313;48.396;10.008;2023-03-23T09:13:35;21.33;;;6.30;;
8252;SDS011;61313;48.396;10.008;2023-03-23T09:16:02;39.07;;;7.43;;
8252;SDS011;61313;48.396;10.008;2023-03-23T09:18:29;20.73;;;7.33;;
8252;SDS011;61313;48.396;10.008;2023-03-23T09:20:57;16.70;;;5.80;;
8252;SDS011;61313;48.396;10.008;2023-03-23T09:23:24;15.43;;;6.83;;
8252;SDS011;61313;48.396;10.008;2023-03-23T09:25:49;7.00;;;5.23;;
8252;SDS011;61313;48.396;10.008;2023-03-23T09:28:16;6.30;;;4.97;;
8252;SDS011;61313;48.396;10.008;2023-03-23T09:30:42;6.43;;;5.53;;
8252;SDS011;61313;48.396;10.008;2023-03-23T09:33:09;7.90;;;4.73;;
8252;SDS011;61313;48.396;10.008;2023-03-23T09:35:35;13.93;;;5.30;;
8252;SDS011;61313;48.396;10.008;2023-03-23T09:38:03;8.20;;;5.30;;
8252;SDS011;61313;48.396;10.008;2023-03-23T09:40:33;13.97;;;5.93;;
8252;SDS011;61313;48.396;10.008;2023-03-23T09:48:58;11.60;;;6.60;;
8252;SDS011;61313;48.396;10.008;2023-03-23T09:54:11;4.90;;;4.47;;
8252;SDS011;61313;48.396;10.008;2023-03-23T09:56:45;5.43;;;4.60;;
8252;SDS011;61313;48.396;10.008;2023-03-23T09:59:25;8.27;;;4.70;;
8252;SDS011;61313;48.396;10.008;2023-03-23T10:02:01;7.90;;;5.30;;
8252;SDS011;61313;48.396;10.008;2023-03-23T10:04:37;7.13;;;5.10;;
8252;SDS011;61313;48.396;10.008;2023-03-23T10:07:25;5.30;;;4.80;;
8252;SDS011;61313;48.396;10.008;2023-03-23T10:09:54;6.93;;;5.90;;
8252;SDS011;61313;48.396;10.008;2023-03-23T10:12:27;5.80;;;4.53;;
8252;SDS011;61313;48.396;10.008;2023-03-23T10:20:45;5.37;;;4.40;;
8252;SDS011;61313;48.396;10.008;2023-03-23T10:25:52;7.63;;;5.83;;
8252;SDS011;61313;48.396;10.008;2023-03-23T10:28:46;12.27;;;5.23;;
8252;SDS011;61313;48.396;10.008;2023-03-23T10:31:13;13.97;;;5.40;;
8252;SDS011;61313;48.396;10.008;2023-03-23T10:33:44;8.20;;;5.37;;
8252;SDS011;61313;48.396;10.008;2023-03-23T10:39:23;9.93;;;6.07;;
8252;SDS011;61313;48.396;10.008;2023-03-23T10:41:52;10.00;;;4.97;;
8252;SDS011;61313;48.396;10.008;2023-03-23T10:46:56;5.97;;;4.73;;
8252;SDS011;61313;48.396;10.008;2023-03-23T10:49:28;7.00;;;4.33;;
8252;SDS011;61313;48.396;10.008;2023-03-23T10:52:18;9.63;;;4.73;;
8252;SDS011;61313;48.396;10.008;2023-03-23T10:54:46;7.63;;;4.67;;
8252;SDS011;61313;48.396;10.008;2023-03-23T10:57:22;7.97;;;4.30;;
8252;SDS011;61313;48.396;10.008;2023-03-23T10:59:50;12.50;;;4.40;;
8252;SDS011;61313;48.396;10.008;2023-03-23T11:02:19;4.53;;;3.70;;
8252;SDS011;61313;48.396;10.008;2023-03-23T11:04:56;4.13;;;3.73;;
8252;SDS011;61313;48.396;10.008;2023-03-23T11:07:26;6.00;;;4.37;;
8252;SDS011;61313;48.396;10.008;2023-03-23T11:09:55;4.67;;;3.90;;
8252;SDS011;61313;48.396;10.008;2023-03-23T11:12:23;7.10;;;4.30;;
8252;SDS011;61313;48.396;10.008;2023-03-23T11:14:49;8.13;;;4.37;;
8252;SDS011;61313;48.396;10.008;2023-03-23T11:17:25;8.30;;;5.00;;
8252;SDS011;61313;48.396;10.008;2023-03-23T11:19:52;7.50;;;4.40;;
8252;SDS011;61313;48.396;10.008;2023-03-23T11:22:24;9.17;;;4.00;;
8252;SDS011;61313;48.396;10.008;2023-03-23T11:24:56;15.13;;;4.57;;
8252;SDS011;61313;48.396;10.008;2023-03-23T11:27:25;4.93;;;3.20;;
8252;SDS011;61313;48.396;10.008;2023-03-23T11:29:53;9.50;;;3.95;;
8252;SDS011;61313;48.396;10.008;2023-03-23T11:32:23;4.50;;;3.47;;
8252;SDS011;61313;48.396;10.008;2023-03-23T11:34:57;10.00;;;4.37;;
8252;SDS011;61313;48.396;10.008;2023-03-23T11:37:40;8.67;;;4.67;;
8252;SDS011;61313;48.396;10.008;2023-03-23T11:42:43;9.03;;;4.30;;
8252;SDS011;61313;48.396;10.008;2023-03-23T11:56:11;3.80;;;3.40;;
8252;SDS011;61313;48.396;10.008;2023-03-23T11:58:44;12.73;;;4.37;;
8252;SDS011;61313;48.396;10.008;2023-03-23T12:09:45;5.90;;;2.07;;
8252;SDS011;61313;48.396;10.008;2023-03-23T12:15:47;37.23;;;6.07;;
8252;SDS011;61313;48.396;10.008;2023-03-23T12:18:48;8.53;;;3.27;;
8252;SDS011;61313;48.396;10.008;2023-03-23T12:21:55;11.90;;;3.20;;
8252;SDS011;61313;48.396;10.008;2023-03-23T12:24:26;12.20;;;2.93;;
8252;SDS011;61313;48.396;10.008;2023-03-23T12:27:00;13.10;;;3.30;;
8252;SDS011;61313;48.396;10.008;2023-03-23T12:32:40;4.13;;;2.50;;
8252;SDS011;61313;48.396;10.008;2023-03-23T12:41:21;6.03;;;3.90;;
8252;SDS011;61313;48.396;10.008;2023-03-23T12:44:13;12.00;;;4.40;;
8252;SDS011;61313;48.396;10.008;2023-03-23T12:46:47;6.87;;;3.43;;
8252;SDS011;61313;48.396;10.008;2023-03-23T12:49:38;9.85;;;3.55;;
8252;SDS011;61313;48.396;10.008;2023-03-23T12:52:13;4.13;;;2.90;;
8252;SDS011;61313;48.396;10.008;2023-03-23T13:03:11;3.77;;;2.67;;
8252;SDS011;61313;48.396;10.008;2023-03-23T13:05:44;3.77;;;2.50;;
8252;SDS011;61313;48.396;10.008;2023-03-23T13:08:34;4.60;;;3.10;;
8252;SDS011;61313;48.396;10.008;2023-03-23T13:11:04;5.80;;;2.40;;
8252;SDS011;61313;48.396;10.008;2023-03-23T13:13:44;7.03;;;2.73;;
8252;SDS011;61313;48.396;10.008;2023-03-23T13:16:37;20.97;;;3.93;;
8252;SDS011;61313;48.396;10.008;2023-03-23T13:24:27;4.20;;;3.17;;
8252;SDS011;61313;48.396;10.008;2023-03-23T13:26:55;4.60;;;3.60;;
8252;SDS011;61313;48.396;10.008;2023-03-23T13:29:23;5.80;;;3.80;;
8252;SDS011;61313;48.396;10.008;2023-03-23T13:31:50;4.47;;;3.80;;
8252;SDS011;61313;48.396;10.008;2023-03-23T13:34:23;8.77;;;3.60;;
8252;SDS011;61313;48.396;10.008;2023-03-23T13:42:34;7.73;;;4.97;;
8252;SDS011;61313;48.396;10.008;2023-03-23T13:49:51;6.13;;;3.80;;
8252;SDS011;61313;48.396;10.008;2023-03-23T13:54:53;5.87;;;3.40;;
8252;SDS011;61313;48.396;10.008;2023-03-23T13:57:49;5.70;;;3.30;;
8252;SDS011;61313;48.396;10.008;2023-03-23T14:06:04;7.60;;;4.17;;
8252;SDS011;61313;48.396;10.008;2023-03-23T14:08:41;6.80;;;3.57;;
8252;SDS011;61313;48.396;10.008;2023-03-23T14:11:11;3.50;;;2.83;;
8252;SDS011;61313;48.396;10.008;2023-03-23T14:13:50;6.10;;;3.37;;
8252;SDS011;61313;48.396;10.008;2023-03-23T14:19:00;8.40;;;3.73;;
8252;SDS011;61313;48.396;10.008;2023-03-23T14:23:59;6.57;;;3.97;;
8252;SDS011;61313;48.396;10.008;2023-03-23T14:26:25;3.63;;;3.33;;
8252;SDS011;61313;48.396;10.008;2023-03-23T14:28:51;6.83;;;3.60;;
8252;SDS011;61313;48.396;10.008;2023-03-23T14:31:22;8.73;;;3.87;;
8252;SDS011;61313;48.396;10.008;2023-03-23T14:33:49;4.57;;;3.20;;
8252;SDS011;61313;48.396;10.008;2023-03-23T14:36:20;11.03;;;3.10;;
8252;SDS011;61313;48.396;10.008;2023-03-23T14:38:54;4.67;;;3.40;;
8252;SDS011;61313;48.396;10.008;2023-03-23T14:41:23;9.63;;;3.80;;
8252;SDS011;61313;48.396;10.008;2023-03-23T14:43:49;5.20;;;3.73;;
8252;SDS011;61313;48.396;10.008;2023-03-23T14:46:15;3.77;;;3.37;;
8252;SDS011;61313;48.396;10.008;2023-03-23T14:48:41;7.27;;;3.50;;
8252;SDS011;61313;48.396;10.008;2023-03-23T14:51:06;4.27;;;3.40;;
8252;SDS011;61313;48.396;10.008;2023-03-23T14:53:41;3.03;;;2.73;;
8252;SDS011;61313;48.396;10.008;2023-03-23T14:56:14;3.90;;;2.70;;
8252;SDS011;61313;48.396;10.008;2023-03-23T14:58:44;4.50;;;3.17;;
8252;SDS011;61313;48.396;10.008;2023-03-23T15:01:18;4.53;;;3.13;;
8252;SDS011;61313;48.396;10.008;2023-03-23T15:04:03;12.83;;;4.10;;
8252;SDS011;61313;48.396;10.008;2023-03-23T15:06:36;4.47;;;3.70;;
8252;SDS011;61313;48.396;10.008;2023-03-23T15:09:07;11.40;;;3.50;;
8252;SDS011;61313;48.396;10.008;2023-03-23T15:11:38;7.17;;;3.30;;
8252;SDS011;61313;48.396;10.008;2023-03-23T15:14:48;3.60;;;2.93;;
8252;SDS011;61313;48.396;10.008;2023-03-23T15:17:11;4.97;;;4.17;;
8252;SDS011;61313;48.396;10.008;2023-03-23T15:19:44;8.10;;;3.87;;
8252;SDS011;61313;48.396;10.008;2023-03-23T15:24:46;11.83;;;3.80;;
8252;SDS011;61313;48.396;10.008;2023-03-23T15:27:31;5.67;;;3.50;;
8252;SDS011;61313;48.396;10.008;2023-03-23T15:30:19;12.03;;;4.93;;
8252;SDS011;61313;48.396;10.008;2023-03-23T15:33:09;5.50;;;3.13;;
8252;SDS011;61313;48.396;10.008;2023-03-23T15:35:37;5.30;;;4.80;;
8252;SDS011;61313;48.396;10.008;2023-03-23T15:38:12;6.40;;;4.57;;
8252;SDS011;61313;48.396;10.008;2023-03-23T15:40:52;7.20;;;3.70;;
8252;SDS011;61313;48.396;10.008;2023-03-23T15:43:27;8.80;;;4.10;;
8252;SDS011;61313;48.396;10.008;2023-03-23T15:48:44;4.97;;;3.70;;
8252;SDS011;61313;48.396;10.008;2023-03-23T15:51:12;6.93;;;4.00;;
8252;SDS011;61313;48.396;10.008;2023-03-23T15:53:38;6.63;;;3.60;;
8252;SDS011;61313;48.396;10.008;2023-03-23T15:56:05;6.13;;;3.67;;
8252;SDS011;61313;48.396;10.008;2023-03-23T15:58:33;4.83;;;3.90;;
8252;SDS011;61313;48.396;10.008;2023-03-23T16:01:01;5.00;;;3.73;;
8252;SDS011;61313;48.396;10.008;2023-03-23T16:03:40;7.10;;;4.57;;
8252;SDS011;61313;48.396;10.008;2023-03-23T16:06:18;6.40;;;3.70;;
8252;SDS011;61313;48.396;10.008;2023-03-23T16:08:45;24.77;;;5.70;;
8252;SDS011;61313;48.396;10.008;2023-03-23T16:11:14;5.93;;;3.80;;
8252;SDS011;61313;48.396;10.008;2023-03-23T16:13:41;6.40;;;3.90;;
8252;SDS011;61313;48.396;10.008;2023-03-23T16:16:52;7.72;;;5.07;;
8252;SDS011;61313;48.396;10.008;2023-03-23T16:19:03;7.33;;;4.33;;
8252;SDS011;61313;48.396;10.008;2023-03-23T16:21:30;8.93;;;4.57;;
8252;SDS011;61313;48.396;10.008;2023-03-23T16:23:55;16.07;;;4.07;;
8252;SDS011;61313;48.396;10.008;2023-03-23T16:26:20;9.23;;;4.90;;
8252;SDS011;61313;48.396;10.008;2023-03-23T16:28:46;6.67;;;4.70;;
8252;SDS011;61313;48.396;10.008;2023-03-23T16:31:12;15.27;;;4.63;;
8252;SDS011;61313;48.396;10.008;2023-03-23T16:33:38;19.63;;;4.50;;
8252;SDS011;61313;48.396;10.008;2023-03-23T16:36:04;8.03;;;4.37;;
8252;SDS011;61313;48.396;10.008;2023-03-23T16:38:29;10.93;;;3.97;;
8252;SDS011;61313;48.396;10.008;2023-03-23T16:40:55;13.93;;;4.57;;
8252;SDS011;61313;48.396;10.008;2023-03-23T16:43:20;11.90;;;4.40;;
8252;SDS011;61313;48.396;10.008;2023-03-23T16:45:46;9.37;;;4.80;;
8252;SDS011;61313;48.396;10.008;2023-03-23T16:48:12;6.60;;;5.17;;
8252;SDS011;61313;48.396;10.008;2023-03-23T16:50:40;5.80;;;4.13;;
8252;SDS011;61313;48.396;10.008;2023-03-23T16:53:06;5.87;;;3.30;;
8252;SDS011;61313;48.396;10.008;2023-03-23T16:55:33;9.53;;;4.37;;
8252;SDS011;61313;48.396;10.008;2023-03-23T16:57:59;10.43;;;4.70;;